Time;durP1;ratioP1;P1;durP2;ratioP2;P2;SDS_P1;SDS_P2;PMS_P1;PMS_P2;Temp;Humidity;BMP_temperature;BMP_pressure;BME280_temperature;BME280_humidity;BME280_pressure;Samples;Min_cycle;Max_cycle;Signal;HPM_P1;HPM_P2
2023/11/09 00:00:42;;;;;;;7.67;5.90;;;;;;;22.06;60.42;97169.41;5014318;28;20222;-28
2023/11/09 00:03:10;;;;;;;8.17;5.87;;;;;;;22.06;60.39;97169.41;5014735;28;20599;-26
2023/11/09 00:05:36;;;;;;;8.27;6.47;;;;;;;22.05;60.42;97169.34;5014326;28;20664;-36
2023/11/09 00:08:03;;;;;;;8.30;6.10;;;;;;;22.05;60.50;97161.69;5014503;28;20264;-28
2023/11/09 00:10:31;;;;;;;7.83;5.60;;;;;;;22.05;60.29;97156.56;5014176;28;20226;-26
2023/11/09 00:12:58;;;;;;;6.70;5.63;;;;;;;22.06;60.35;97154.03;5014427;28;20716;-36
2023/11/09 00:15:28;;;;;;;7.33;5.80;;;;;;;22.06;60.33;97160.84;5013766;28;20220;-31
2023/11/09 00:17:56;;;;;;;6.93;5.57;;;;;;;22.05;60.32;97162.53;5014071;28;20207;-27
2023/11/09 00:20:22;;;;;;;6.83;6.03;;;;;;;22.06;60.49;97163.41;5013700;28;20665;-26
2023/11/09 00:22:51;;;;;;;8.53;5.97;;;;;;;22.06;60.53;97163.41;5013791;28;20284;-27
2023/11/09 00:25:17;;;;;;;7.23;5.53;;;;;;;22.06;60.23;97161.72;5012312;28;20212;-35
2023/11/09 00:27:44;;;;;;;6.23;5.10;;;;;;;22.06;60.52;97163.41;5009336;28;20214;-28
2023/11/09 00:30:11;;;;;;;7.00;5.20;;;;;;;22.06;60.39;97156.59;5013432;28;20203;-26
2023/11/09 00:32:37;;;;;;;5.90;5.30;;;;;;;22.06;60.30;97158.28;5013521;28;20225;-28
2023/11/09 00:35:08;;;;;;;8.97;5.93;;;;;;;22.04;60.34;97145.44;5013713;28;20209;-28
2023/11/09 00:37:37;;;;;;;6.83;5.63;;;;;;;22.06;60.26;97161.72;5013382;28;20206;-26
2023/11/09 00:40:09;;;;;;;9.03;6.03;;;;;;;22.05;60.29;97148.88;5013587;28;20232;-27
2023/11/09 00:42:37;;;;;;;7.33;6.10;;;;;;;22.05;60.39;97141.22;5013225;28;20669;-28
2023/11/09 00:45:04;;;;;;;7.43;5.60;;;;;;;22.06;60.28;97145.47;5014186;28;20206;-26
2023/11/09 00:47:30;;;;;;;6.57;4.90;;;;;;;22.06;60.30;97140.38;5014079;28;20202;-27
2023/11/09 00:49:57;;;;;;;6.40;5.30;;;;;;;22.05;60.44;97138.66;5013681;28;20682;-26
2023/11/09 00:52:24;;;;;;;7.30;5.43;;;;;;;22.06;60.33;97137.81;5012717;28;20206;-29
2023/11/09 00:54:51;;;;;;;8.37;5.70;;;;;;;22.04;60.47;97132.66;5013488;28;20228;-28
2023/11/09 00:57:20;;;;;;;6.73;5.63;;;;;;;22.05;60.45;97130.97;5012764;28;20210;-27
2023/11/09 00:59:48;;;;;;;7.47;5.73;;;;;;;22.05;60.38;97125.84;5013092;28;20206;-27
2023/11/09 01:02:16;;;;;;;7.83;5.73;;;;;;;22.06;60.52;97131.00;5013176;28;20578;-27
2023/11/09 01:04:43;;;;;;;7.57;5.27;;;;;;;22.07;60.61;97121.63;5012137;28;20241;-26
2023/11/09 01:07:10;;;;;;;7.43;5.53;;;;;;;22.06;60.43;97120.78;5012422;28;20742;-26
2023/11/09 01:09:38;;;;;;;6.77;5.47;;;;;;;22.05;60.37;97123.28;5012489;28;20207;-26
2023/11/09 01:12:05;;;;;;;5.50;4.97;;;;;;;21.97;60.28;97109.47;5012973;28;20202;-26
2023/11/09 01:14:32;;;;;;;5.83;4.77;;;;;;;22.07;60.32;97119.06;5008468;28;21324;-27
2023/11/09 01:16:59;;;;;;;6.10;5.23;;;;;;;22.05;60.41;97118.19;5012803;28;20260;-26
2023/11/09 01:19:25;;;;;;;6.87;5.30;;;;;;;22.04;60.46;97107.06;5012348;28;20198;-26
2023/11/09 01:21:52;;;;;;;6.70;5.07;;;;;;;22.04;60.33;97101.06;5012480;28;20214;-26
2023/11/09 01:24:19;;;;;;;7.40;5.57;;;;;;;22.04;60.24;97111.31;5013034;28;20734;-26
2023/11/09 01:26:45;;;;;;;6.47;5.63;;;;;;;22.04;60.31;97101.06;5012097;28;20233;-26
2023/11/09 01:29:13;;;;;;;7.07;5.00;;;;;;;22.04;60.33;97101.06;5011803;28;20626;-30
2023/11/09 01:31:40;;;;;;;7.10;5.43;;;;;;;22.04;60.39;97104.50;5012464;28;20233;-26
2023/11/09 01:34:07;;;;;;;7.23;5.30;;;;;;;22.04;60.46;97104.50;5012389;28;20646;-31
2023/11/09 01:36:40;;;;;;;5.70;4.63;;;;;;;22.04;60.40;97101.06;5010767;28;20639;-28
2023/11/09 01:39:09;;;;;;;6.63;5.10;;;;;;;22.05;60.40;97102.81;5012550;28;20237;-26
2023/11/09 01:41:36;;;;;;;8.17;5.50;;;;;;;21.98;60.30;97088.16;4994090;28;20577;-26
2023/11/09 01:44:02;;;;;;;6.77;5.37;;;;;;;22.06;60.21;97100.28;5012195;28;20700;-26
2023/11/09 01:46:29;;;;;;;6.73;5.20;;;;;;;22.06;60.36;97100.28;5011992;28;20199;-28
2023/11/09 01:48:56;;;;;;;6.80;4.73;;;;;;;22.06;60.20;97097.75;4978734;28;20217;-26
2023/11/09 01:51:22;;;;;;;6.53;5.47;;;;;;;22.07;60.34;97096.03;5012374;28;20632;-26
2023/11/09 01:53:49;;;;;;;5.80;4.90;;;;;;;22.05;60.24;97102.81;5012168;28;20269;-26
2023/11/09 01:56:16;;;;;;;7.27;5.33;;;;;;;22.04;60.29;97099.41;4978217;28;20612;-29
2023/11/09 01:58:42;;;;;;;6.33;5.00;;;;;;;22.04;60.34;97093.41;4980623;28;20241;-26
2023/11/09 02:01:11;;;;;;;6.13;5.17;;;;;;;22.05;60.38;97090.03;4992005;28;20308;-26
2023/11/09 02:03:38;;;;;;;6.87;5.13;;;;;;;22.04;60.35;97090.84;5012295;28;20218;-28
2023/11/09 02:06:06;;;;;;;6.73;4.87;;;;;;;22.04;60.35;97085.72;5011674;28;20288;-26
2023/11/09 02:08:32;;;;;;;6.30;4.53;;;;;;;22.06;60.38;97090.06;5011864;28;20208;-26
2023/11/09 02:10:59;;;;;;;5.63;4.77;;;;;;;22.04;60.23;97090.84;5012151;28;20263;-26
2023/11/09 02:13:26;;;;;;;7.07;5.00;;;;;;;22.04;60.17;97086.59;5012346;28;20237;-26
2023/11/09 02:15:54;;;;;;;6.20;5.33;;;;;;;22.04;60.29;97086.59;4994423;28;20743;-26
2023/11/09 02:18:21;;;;;;;6.37;4.70;;;;;;;22.03;60.31;97089.13;4994591;28;20209;-26
2023/11/09 02:20:51;;;;;;;6.53;5.20;;;;;;;22.03;60.23;97084.88;5011745;28;20682;-27
2023/11/09 02:23:23;;;;;;;5.33;4.80;;;;;;;22.04;60.23;97088.28;5011641;28;20682;-29
2023/11/09 02:25:50;;;;;;;5.17;4.53;;;;;;;22.04;60.34;97072.94;5011148;28;20212;-27
2023/11/09 02:28:17;;;;;;;6.13;5.00;;;;;;;22.03;60.24;97074.66;5009909;28;20198;-29
2023/11/09 02:30:44;;;;;;;5.83;4.90;;;;;;;22.02;60.16;97075.47;4994012;28;20203;-26
2023/11/09 02:33:11;;;;;;;5.57;4.73;;;;;;;22.02;60.29;97078.00;5011388;28;20305;-28
2023/11/09 02:35:38;;;;;;;6.90;5.10;;;;;;;22.02;60.27;97075.47;5011495;28;20202;-28
2023/11/09 02:38:05;;;;;;;5.80;5.20;;;;;;;22.02;60.14;97072.06;5010717;28;20252;-26
2023/11/09 02:40:31;;;;;;;6.73;5.30;;;;;;;22.01;60.12;97067.75;5011900;28;20198;-29
2023/11/09 02:42:58;;;;;;;5.87;4.57;;;;;;;22.02;60.32;97061.81;5011794;28;20257;-26
2023/11/09 02:45:25;;;;;;;6.27;5.30;;;;;;;22.01;60.19;97057.50;5011494;28;20660;-26
2023/11/09 02:47:51;;;;;;;5.53;4.90;;;;;;;22.03;60.18;97050.75;5011723;28;20230;-28
2023/11/09 02:50:20;;;;;;;5.60;5.00;;;;;;;22.03;60.30;97048.19;5011366;28;20673;-26
2023/11/09 02:52:48;;;;;;;6.57;4.87;;;;;;;22.02;60.21;97049.88;5011925;28;20234;-26
2023/11/09 02:55:18;;;;;;;6.67;4.97;;;;;;;22.02;60.19;97034.50;5014928;28;20206;-31
2023/11/09 02:57:45;;;;;;;6.57;5.00;;;;;;;22.02;60.31;97031.13;5015197;28;20664;-30
2023/11/09 03:00:12;;;;;;;5.90;4.93;;;;;;;22.04;60.33;97037.09;5015692;28;20378;-28
2023/11/09 03:02:39;;;;;;;5.43;4.90;;;;;;;22.04;60.06;97034.53;5014954;28;20305;-26
2023/11/09 03:05:06;;;;;;;5.27;4.50;;;;;;;22.04;60.19;97035.41;5015956;28;20198;-28
2023/11/09 03:07:33;;;;;;;4.90;4.40;;;;;;;22.04;60.19;97035.41;5015659;28;20202;-26
2023/11/09 03:10:00;;;;;;;5.67;4.70;;;;;;;22.06;60.14;97036.31;5011106;28;20280;-28
2023/11/09 03:12:29;;;;;;;5.80;4.90;;;;;;;22.06;60.29;97030.34;5015134;28;20201;-27
2023/11/09 03:14:55;;;;;;;6.27;4.83;;;;;;;22.05;60.23;97033.72;5014725;28;20260;-26
2023/11/09 03:17:22;;;;;;;5.87;4.73;;;;;;;21.78;60.26;96980.31;5015011;28;20205;-26
2023/11/09 03:19:48;;;;;;;5.23;4.63;;;;;;;22.05;60.07;97023.50;5015604;28;20305;-33
2023/11/09 03:22:15;;;;;;;5.70;4.27;;;;;;;22.06;60.11;97025.22;5015131;28;20218;-26
2023/11/09 03:24:42;;;;;;;5.80;4.30;;;;;;;22.06;60.05;97020.97;5015000;28;20273;-26
2023/11/09 03:27:10;;;;;;;5.17;4.10;;;;;;;22.06;60.20;97020.97;5014101;28;20573;-27
2023/11/09 03:29:37;;;;;;;5.03;4.53;;;;;;;22.06;60.08;97012.41;5014950;28;20771;-27
2023/11/09 03:32:06;;;;;;;4.87;4.37;;;;;;;22.06;60.15;97005.63;5014974;28;20202;-26
2023/11/09 03:34:33;;;;;;;4.83;4.33;;;;;;;22.03;60.17;97000.44;5015389;28;20254;-29
2023/11/09 03:37:00;;;;;;;5.07;4.57;;;;;;;22.05;59.98;97006.44;4997471;28;20209;-26
2023/11/09 03:39:27;;;;;;;4.97;4.10;;;;;;;21.81;60.07;96964.16;5014849;28;20220;-26
2023/11/09 03:41:54;;;;;;;5.40;4.23;;;;;;;22.06;60.12;96997.06;5014943;28;20222;-27
2023/11/09 03:44:21;;;;;;;5.63;4.37;;;;;;;22.04;60.34;96994.47;5013348;28;20712;-28
2023/11/09 03:46:51;;;;;;;4.90;4.40;;;;;;;22.06;59.95;96995.38;4997140;28;20202;-26
2023/11/09 03:49:19;;;;;;;4.83;4.33;;;;;;;22.04;60.15;96998.72;5010981;28;20226;-29
2023/11/09 03:51:46;;;;;;;4.87;4.07;;;;;;;22.02;59.93;96990.19;5014694;28;20628;-29
2023/11/09 03:54:12;;;;;;;4.30;3.90;;;;;;;22.03;59.93;97000.44;5015048;28;20312;-28
2023/11/09 03:56:39;;;;;;;5.43;4.50;;;;;;;22.03;60.12;96992.75;5013997;28;20202;-29
2023/11/09 03:59:05;;;;;;;5.23;4.40;;;;;;;22.03;60.14;96984.22;5014069;28;20202;-29
2023/11/09 04:01:32;;;;;;;4.53;4.10;;;;;;;22.03;60.12;96982.53;5010307;28;20250;-29
2023/11/09 04:03:59;;;;;;;5.77;4.43;;;;;;;22.03;60.10;96977.41;5014428;28;20350;-26
2023/11/09 04:06:26;;;;;;;4.87;4.37;;;;;;;22.03;60.01;96982.53;5013101;28;20202;-26
2023/11/09 04:08:52;;;;;;;5.30;4.30;;;;;;;22.04;60.08;96978.25;5014275;28;20210;-29
2023/11/09 04:11:20;;;;;;;5.57;4.47;;;;;;;22.05;60.32;96980.00;5014834;28;20248;-26
2023/11/09 04:13:47;;;;;;;4.93;4.10;;;;;;;22.05;60.19;96972.31;5014369;28;20321;-27
2023/11/09 04:16:14;;;;;;;5.13;4.33;;;;;;;22.05;60.15;96967.19;5014375;28;20234;-26
2023/11/09 04:18:40;;;;;;;4.73;4.10;;;;;;;22.05;59.91;96959.53;5013938;28;20202;-26
2023/11/09 04:21:09;;;;;;;4.80;4.20;;;;;;;22.06;59.85;96968.91;5009296;28;20226;-28
2023/11/09 04:23:37;;;;;;;5.93;4.43;;;;;;;22.06;59.98;96956.13;4995882;28;20221;-26
2023/11/09 04:26:08;;;;;;;5.67;4.10;;;;;;;22.06;60.12;96959.56;5013349;28;20234;-26
2023/11/09 04:28:37;;;;;;;4.80;4.30;;;;;;;22.07;60.07;96952.72;5014219;28;20206;-26
2023/11/09 04:31:09;;;;;;;5.10;4.37;;;;;;;22.05;59.83;96946.72;5012967;28;20253;-26
2023/11/09 04:33:36;;;;;;;4.90;4.20;;;;;;;22.07;60.18;96939.91;5013870;28;20245;-29
2023/11/09 04:36:08;;;;;;;4.30;3.90;;;;;;;22.08;60.13;96944.22;5013541;28;20241;-26
2023/11/09 04:38:37;;;;;;;4.50;4.00;;;;;;;22.06;60.07;96931.41;5010523;28;20206;-27
2023/11/09 04:41:12;;;;;;;4.30;3.90;;;;;;;22.08;60.09;96928.88;4996676;28;20230;-26
2023/11/09 04:43:39;;;;;;;4.73;4.23;;;;;;;22.07;60.06;96932.25;5013294;28;20285;-26
2023/11/09 04:46:10;;;;;;;4.87;3.80;;;;;;;;;;5012951;28;20234;-26
2023/11/09 04:48:44;;;;;;;4.13;3.73;;;;;;;22.04;60.05;96925.38;5013604;28;20349;-26
2023/11/09 04:51:20;;;;;;;4.93;4.13;;;;;;;22.05;59.83;96923.69;5007685;28;20301;-26
2023/11/09 04:53:53;;;;;;;4.10;3.80;;;;;;;22.05;59.99;96926.25;5013470;28;20225;-26
2023/11/09 04:56:31;;;;;;;4.63;4.13;;;;;;;22.05;59.92;96921.16;5014042;28;20208;-26
2023/11/09 04:59:03;;;;;;;5.13;3.60;;;;;;;;;;5013542;28;20229;-26
2023/11/09 05:07:00;;;;;;;4.37;3.90;;;;;;;22.08;59.63;96916.06;5012673;28;20198;-26
2023/11/09 05:09:27;;;;;;;3.90;3.50;;;;;;;22.08;59.95;96903.28;5013222;28;20589;-28
2023/11/09 05:11:54;;;;;;;3.80;3.50;;;;;;;22.09;59.88;96915.22;5012908;28;20643;-26
2023/11/09 05:14:21;;;;;;;4.30;3.87;;;;;;;22.09;59.70;96913.53;5012487;28;20380;-26
2023/11/09 05:16:48;;;;;;;4.47;3.80;;;;;;;22.08;59.71;96903.28;5012686;28;20285;-30
2023/11/09 05:19:14;;;;;;;4.10;3.70;;;;;;;22.08;59.91;96896.44;5013276;28;20198;-26
2023/11/09 05:21:41;;;;;;;4.70;4.07;;;;;;;22.10;59.64;96902.47;5012630;28;20226;-31
2023/11/09 05:24:08;;;;;;;4.93;3.80;;;;;;;22.09;59.71;96897.31;5012431;28;20835;-28
2023/11/09 05:26:34;;;;;;;3.63;3.30;;;;;;;22.10;59.66;96897.34;5012652;28;20224;-26
2023/11/09 05:29:04;;;;;;;4.33;3.93;;;;;;;22.09;59.57;96884.53;5012687;28;20237;-26
2023/11/09 05:31:34;;;;;;;4.17;3.70;;;;;;;22.09;59.66;96882.84;5012221;28;20199;-28
2023/11/09 05:34:01;;;;;;;4.30;3.90;;;;;;;22.08;59.39;96890.50;5012941;28;20773;-26
2023/11/09 05:36:27;;;;;;;4.07;3.67;;;;;;;22.08;59.36;96880.25;5012379;28;20201;-26
2023/11/09 05:38:55;;;;;;;4.10;3.70;;;;;;;22.08;58.97;96890.50;5012599;28;20288;-31
2023/11/09 05:41:22;;;;;;;5.20;3.70;;;;;;;22.06;59.14;96887.91;5005447;28;20264;-26
2023/11/09 05:43:48;;;;;;;4.87;3.90;;;;;;;22.06;59.38;96882.78;5012567;28;20222;-27
2023/11/09 05:46:15;;;;;;;5.20;4.17;;;;;;;22.07;59.45;96878.50;5006708;28;20206;-26
2023/11/09 05:48:42;;;;;;;4.33;3.90;;;;;;;22.07;59.43;96878.50;5012855;28;20264;-26
2023/11/09 05:51:09;;;;;;;5.10;4.40;;;;;;;22.07;59.45;96878.50;5012723;28;20203;-28
2023/11/09 05:53:35;;;;;;;4.90;4.13;;;;;;;22.07;59.60;96881.06;5010656;28;20222;-26
2023/11/09 05:56:03;;;;;;;4.13;3.60;;;;;;;;;;5007747;28;20207;-26
2023/11/09 05:58:29;;;;;;;4.37;3.87;;;;;;;22.06;59.47;96870.00;5011871;28;20195;-26
2023/11/09 06:00:56;;;;;;;6.73;4.10;;;;;;;22.08;59.46;96865.75;5008588;28;20205;-26
2023/11/09 06:03:22;;;;;;;6.20;4.27;;;;;;;;;;5010865;28;20222;-26
2023/11/09 06:05:50;;;;;;;7.47;4.40;;;;;;;22.09;59.53;96874.28;5012176;28;20194;-28
2023/11/09 06:08:18;;;;;;;4.70;4.13;;;;;;;22.08;59.32;96868.31;5009820;28;20198;-26
2023/11/09 06:10:47;;;;;;;7.30;5.00;;;;;;;22.07;53.65;96883.63;5011406;28;20230;-32
2023/11/09 06:13:14;;;;;;;6.53;4.97;;;;;;;22.03;49.14;96867.38;5010709;28;20241;-28
2023/11/09 06:15:41;;;;;;;6.33;5.23;;;;;;;22.00;46.32;96874.13;5011883;28;20209;-26
2023/11/09 06:18:11;;;;;;;7.57;5.00;;;;;;;21.96;44.42;96868.09;4994346;28;20284;-27
2023/11/09 06:20:41;;;;;;;9.53;5.50;;;;;;;21.94;42.70;96863.78;5012301;28;20199;-26
2023/11/09 06:23:08;;;;;;;11.73;5.23;;;;;;;21.91;41.99;96876.53;5010585;28;20222;-35
2023/11/09 06:25:34;;;;;;;6.53;4.87;;;;;;;21.85;40.87;96864.50;5011492;28;20629;-27
2023/11/09 06:28:02;;;;;;;6.07;4.70;;;;;;;21.84;41.25;96869.59;5011535;28;20205;-26
2023/11/09 06:30:29;;;;;;;8.10;4.50;;;;;;;21.82;40.62;96881.50;5011370;28;20198;-27
2023/11/09 06:32:56;;;;;;;6.87;4.83;;;;;;;21.79;40.28;96879.72;4994494;28;20221;-26
2023/11/09 06:35:23;;;;;;;10.80;4.50;;;;;;;21.77;40.14;96880.53;5012001;28;20631;-26
2023/11/09 06:37:50;;;;;;;6.43;4.33;;;;;;;21.77;40.93;96880.53;5011889;28;20202;-26
2023/11/09 06:40:17;;;;;;;6.00;4.37;;;;;;;21.77;42.84;96880.53;5011172;28;20308;-28
2023/11/09 06:42:44;;;;;;;6.70;4.10;;;;;;;21.77;43.77;96888.19;4995376;28;20237;-29
2023/11/09 06:45:11;;;;;;;5.67;4.83;;;;;;;21.78;45.22;96887.34;5001611;28;20583;-31
2023/11/09 06:47:40;;;;;;;6.20;4.60;;;;;;;21.77;45.64;96891.63;5001176;28;20206;-28
2023/11/09 06:50:11;;;;;;;5.23;4.27;;;;;;;21.78;46.39;96893.34;5003071;28;20230;-29
2023/11/09 06:52:40;;;;;;;8.90;4.67;;;;;;;21.76;44.00;96886.50;5002548;28;20673;-31
2023/11/09 06:55:10;;;;;;;7.07;4.83;;;;;;;21.77;45.77;96894.19;4997738;28;20272;-28
2023/11/09 06:57:37;;;;;;;6.97;4.23;;;;;;;21.77;46.62;96883.09;4997445;28;20249;-31
2023/11/09 07:00:08;;;;;;;7.47;4.50;;;;;;;21.78;47.37;96905.25;4984362;28;20202;-38
2023/11/09 07:02:34;;;;;;;6.00;3.90;;;;;;;21.78;47.84;96893.34;4997080;28;20789;-26
2023/11/09 07:05:01;;;;;;;9.70;4.43;;;;;;;21.77;48.24;96898.44;4999750;28;20410;-29
2023/11/09 07:07:28;;;;;;;7.53;4.50;;;;;;;21.78;48.36;96889.91;4998505;28;20283;-43
2023/11/09 07:09:55;;;;;;;5.43;3.80;;;;;;;21.77;48.91;96889.06;4998885;28;20209;-28
2023/11/09 07:12:22;;;;;;;5.47;4.17;;;;;;;21.78;49.32;96890.78;4998562;28;20256;-38
2023/11/09 07:14:48;;;;;;;5.77;4.30;;;;;;;21.79;49.73;96889.09;4998187;28;20292;-32
2023/11/09 07:17:15;;;;;;;5.70;4.33;;;;;;;21.80;49.67;96884.03;4998395;28;20292;-29
2023/11/09 07:19:43;;;;;;;5.80;4.00;;;;;;;21.81;50.05;96888.28;4998666;28;20214;-29
2023/11/09 07:22:10;;;;;;;4.03;3.60;;;;;;;21.81;50.42;96883.16;4998364;28;20284;-30
2023/11/09 07:24:39;;;;;;;4.83;3.43;;;;;;;21.82;50.52;96882.34;4998969;28;20233;-29
2023/11/09 07:27:12;;;;;;;4.80;3.67;;;;;;;21.83;50.80;96884.06;5000585;28;20210;-28
2023/11/09 07:29:39;;;;;;;5.03;3.93;;;;;;;21.85;50.99;96884.97;4998817;28;20210;-28
2023/11/09 07:32:06;;;;;;;5.67;3.83;;;;;;;21.86;51.37;96878.13;5000978;28;20265;-26
2023/11/09 07:34:33;;;;;;;5.23;3.83;;;;;;;21.84;48.29;96878.13;5008295;28;20313;-27
2023/11/09 07:37:04;;;;;;;7.37;4.23;;;;;;;21.83;47.12;96873.84;4991998;28;20582;-29
2023/11/09 07:39:31;;;;;;;4.60;3.70;;;;;;;21.82;48.22;96867.00;5010792;28;20290;-26
2023/11/09 07:42:01;;;;;;;6.17;4.30;;;;;;;21.83;48.79;96867.84;5013808;28;20210;-26
2023/11/09 07:44:27;;;;;;;6.60;3.77;;;;;;;21.82;49.34;96863.59;5008806;28;20316;-28
2023/11/09 07:46:54;;;;;;;5.13;4.17;;;;;;;21.82;49.71;96848.22;5014197;28;20206;-26
2023/11/09 07:49:21;;;;;;;5.23;3.80;;;;;;;21.83;49.78;96857.63;5013520;28;20206;-26
2023/11/09 07:51:48;;;;;;;4.10;3.63;;;;;;;21.82;50.17;96856.78;5014598;28;20209;-26
2023/11/09 07:54:17;;;;;;;6.03;3.70;;;;;;;21.83;50.18;96865.28;5013812;28;20241;-29
2023/11/09 07:56:44;;;;;;;4.40;3.63;;;;;;;21.83;50.68;96863.59;5010048;28;20202;-29
2023/11/09 07:59:10;;;;;;;5.50;4.00;;;;;;;21.84;50.92;96877.28;5014355;28;20203;-26
2023/11/09 08:01:37;;;;;;;4.27;3.60;;;;;;;21.85;50.92;96872.19;5014724;28;20213;-26
2023/11/09 08:04:05;;;;;;;3.73;3.33;;;;;;;21.85;51.31;96876.44;5014095;28;20254;-30
2023/11/09 08:06:32;;;;;;;4.60;3.80;;;;;;;21.86;51.53;96881.56;5006620;28;20214;-26
2023/11/09 08:08:59;;;;;;;4.77;3.63;;;;;;;21.86;51.54;96873.91;5014124;28;20202;-29
2023/11/09 08:11:29;;;;;;;5.73;3.87;;;;;;;21.88;51.89;96873.91;5013819;28;20307;-27
2023/11/09 08:13:57;;;;;;;6.67;3.93;;;;;;;21.87;52.04;96873.06;5010057;28;20260;-29
2023/11/09 08:16:25;;;;;;;5.30;3.50;;;;;;;21.90;52.14;96877.38;5013661;28;20657;-27
2023/11/09 08:18:51;;;;;;;3.70;3.10;;;;;;;21.89;52.13;96867.97;5014277;28;20206;-26
2023/11/09 08:21:20;;;;;;;4.30;3.60;;;;;;;21.89;52.27;96876.50;5014113;28;20204;-28
2023/11/09 08:23:46;;;;;;;4.23;3.40;;;;;;;21.90;52.38;96877.38;5013257;28;20230;-26
2023/11/09 08:26:13;;;;;;;3.60;3.30;;;;;;;21.90;52.46;96879.94;4996575;28;20549;-26
2023/11/09 08:28:40;;;;;;;3.27;2.97;;;;;;;21.89;52.47;96883.31;5014298;28;20272;-26
2023/11/09 08:31:08;;;;;;;4.53;3.37;;;;;;;21.88;52.64;96869.69;5013945;28;20198;-27
2023/11/09 08:33:35;;;;;;;5.30;3.50;;;;;;;21.89;52.72;96884.19;5002005;28;20309;-27
2023/11/09 08:36:04;;;;;;;4.90;3.47;;;;;;;21.89;52.71;96881.63;5003840;28;20221;-32
2023/11/09 08:38:35;;;;;;;5.57;3.40;;;;;;;21.87;52.69;96880.72;5003380;28;20250;-29
2023/11/09 08:41:02;;;;;;;3.70;3.17;;;;;;;21.89;53.04;96873.06;5004061;28;20244;-27
2023/11/09 08:43:29;;;;;;;4.00;3.27;;;;;;;21.90;53.14;96874.81;5002189;28;20724;-35
2023/11/09 08:45:56;;;;;;;4.60;3.57;;;;;;;21.90;53.10;96865.44;5002934;28;20202;-26
2023/11/09 08:48:24;;;;;;;3.47;3.07;;;;;;;21.91;53.12;96868.84;5003406;28;20218;-31
2023/11/09 08:50:50;;;;;;;5.47;3.33;;;;;;;21.90;53.31;96870.53;5011131;28;20572;-26
2023/11/09 08:53:18;;;;;;;3.43;3.13;;;;;;;21.92;53.27;96868.00;5005296;28;20229;-33
2023/11/09 08:55:45;;;;;;;3.77;3.00;;;;;;;21.92;53.44;96866.31;5010930;28;20587;-26
2023/11/09 08:58:12;;;;;;;3.83;3.17;;;;;;;21.93;53.53;96859.53;5006534;28;20218;-26
2023/11/09 09:00:39;;;;;;;4.23;3.40;;;;;;;21.93;53.45;96868.03;5006389;28;20334;-29
2023/11/09 09:03:07;;;;;;;6.47;3.30;;;;;;;21.94;53.51;96868.91;5010895;28;20233;-28
2023/11/09 09:05:34;;;;;;;3.47;3.00;;;;;;;21.93;53.65;96865.47;5009752;28;20256;-28
2023/11/09 09:08:01;;;;;;;3.80;3.07;;;;;;;21.92;53.53;96865.44;5007954;28;20293;-34
2023/11/09 09:10:30;;;;;;;3.10;2.80;;;;;;;21.92;53.68;96856.09;4985571;28;20215;-27
2023/11/09 09:13:00;;;;;;;3.13;2.87;;;;;;;21.92;53.59;96848.41;5011280;28;20234;-32
2023/11/09 09:15:30;;;;;;;3.20;2.90;;;;;;;21.92;53.70;96857.78;5009038;28;20625;-26
2023/11/09 09:17:58;;;;;;;3.20;2.90;;;;;;;21.92;53.82;96850.97;5010606;28;20264;-26
2023/11/09 09:20:25;;;;;;;3.60;2.90;;;;;;;21.92;53.71;96845.84;5010644;28;20210;-26
2023/11/09 09:22:56;;;;;;;3.37;2.90;;;;;;;21.92;53.76;96830.50;5005193;28;20233;-27
2023/11/09 09:25:25;;;;;;;3.93;3.03;;;;;;;21.91;53.80;96822.81;5010466;28;20587;-27
2023/11/09 09:27:52;;;;;;;3.93;3.07;;;;;;;21.93;53.87;96831.38;5005678;28;20206;-30
2023/11/09 09:30:21;;;;;;;2.77;2.57;;;;;;;21.92;54.01;96834.75;5010792;28;20217;-27
2023/11/09 09:32:50;;;;;;;3.53;2.77;;;;;;;21.94;54.00;96841.66;5011601;28;20268;-27
2023/11/09 09:35:20;;;;;;;3.20;2.90;;;;;;;21.94;54.08;96856.13;5008281;28;20207;-29
2023/11/09 09:37:50;;;;;;;2.73;2.53;;;;;;;21.95;54.25;96868.06;4994525;28;20240;-31
2023/11/09 09:40:20;;;;;;;5.20;2.93;;;;;;;21.94;54.11;96885.13;4998723;28;20204;-34
2023/11/09 09:42:52;;;;;;;3.20;2.70;;;;;;;21.96;54.31;96887.72;5000050;28;20232;-33
2023/11/09 09:45:21;;;;;;;3.43;3.00;;;;;;;21.96;54.19;96887.72;5000992;28;20470;-36
2023/11/09 09:47:49;;;;;;;3.87;3.00;;;;;;;21.96;54.29;96887.72;4999630;28;20543;-34
2023/11/09 09:50:17;;;;;;;3.93;2.90;;;;;;;21.95;54.23;96880.84;5000664;28;20649;-32
2023/11/09 09:52:46;;;;;;;2.90;2.60;;;;;;;21.96;54.43;96882.59;4986310;28;20232;-28
2023/11/09 09:55:14;;;;;;;2.87;2.67;;;;;;;21.96;54.29;96887.72;5000046;28;20397;-28
2023/11/09 09:57:44;;;;;;;3.23;2.90;;;;;;;21.95;54.40;96894.53;4999459;28;20242;-29
2023/11/09 10:00:23;;;;;;;3.10;2.80;;;;;;;21.95;54.23;96891.09;5000518;28;20612;-28
2023/11/09 10:02:50;;;;;;;2.73;2.47;;;;;;;21.94;54.54;96884.25;4999858;28;20608;-31
2023/11/09 10:05:18;;;;;;;3.10;2.80;;;;;;;21.94;54.42;96887.69;4999921;28;20210;-29
2023/11/09 10:08:02;;;;;;;2.93;2.60;;;;;;;21.94;54.39;96886.81;5000127;28;20242;-37
2023/11/09 10:10:33;;;;;;;4.00;2.87;;;;;;;21.94;54.59;96887.69;4999345;28;20664;-28
2023/11/09 10:13:01;;;;;;;3.40;2.90;;;;;;;21.95;54.57;96885.97;4999351;28;20276;-34
2023/11/09 10:15:31;;;;;;;2.97;2.57;;;;;;;21.95;54.66;96885.97;4998596;28;20668;-29
2023/11/09 10:17:58;;;;;;;2.70;2.50;;;;;;;21.94;54.53;96876.59;4999787;28;20210;-34
2023/11/09 10:20:27;;;;;;;2.77;2.53;;;;;;;21.95;54.64;96874.06;4988478;28;20268;-30
2023/11/09 10:22:54;;;;;;;2.70;2.50;;;;;;;21.96;54.82;96869.81;4999604;28;20261;-33
2023/11/09 10:25:30;;;;;;;2.83;2.63;;;;;;;21.96;54.85;96875.75;4999567;28;20754;-28
2023/11/09 10:28:00;;;;;;;3.70;2.70;;;;;;;21.96;54.69;96875.75;4999493;28;20279;-26
2023/11/09 10:30:35;;;;;;;2.77;2.57;;;;;;;21.97;54.80;96867.28;4999158;28;20237;-27
2023/11/09 10:33:05;;;;;;;2.90;2.70;;;;;;;21.97;54.69;96872.41;4990880;28;20236;-26
2023/11/09 10:35:32;;;;;;;3.07;2.70;;;;;;;21.96;54.75;96860.41;4999033;28;20220;-26
2023/11/09 10:37:59;;;;;;;3.20;2.90;;;;;;;21.96;54.66;96860.41;4999643;28;20574;-27
2023/11/09 10:40:29;;;;;;;2.70;2.50;;;;;;;21.97;54.88;96858.72;4999261;28;20582;-29
2023/11/09 10:43:00;;;;;;;2.57;2.37;;;;;;;21.96;54.82;96854.47;4976989;28;20316;-31
2023/11/09 10:45:36;;;;;;;2.93;2.63;;;;;;;21.96;54.78;96850.19;4998834;28;20210;-35
2023/11/09 10:48:07;;;;;;;3.53;2.90;;;;;;;21.93;54.77;96839.91;4998691;28;20786;-35
2023/11/09 10:50:35;;;;;;;3.30;2.40;;;;;;;21.95;55.01;96842.47;4998444;28;20852;-40
2023/11/09 10:53:04;;;;;;;3.00;2.67;;;;;;;21.95;54.51;96839.91;4997699;28;20229;-35
2023/11/09 10:55:30;;;;;;;2.80;2.60;;;;;;;21.95;55.02;96835.69;4999127;28;20293;-28
2023/11/09 10:58:01;;;;;;;3.10;2.80;;;;;;;21.90;54.92;96821.09;4999224;28;20225;-29
2023/11/09 11:00:42;;;;;;;3.03;2.73;;;;;;;21.95;55.09;96825.44;4998290;28;20218;-29
2023/11/09 11:03:27;;;;;;;3.67;2.60;;;;;;;21.96;54.95;96821.19;4998603;28;20279;-29
2023/11/09 11:06:04;;;;;;;2.83;2.57;;;;;;;21.97;55.03;96807.56;4998962;28;20213;-31
2023/11/09 11:08:38;;;;;;;2.90;2.60;;;;;;;21.97;55.03;96802.44;4969126;28;20305;-31
2023/11/09 11:11:05;;;;;;;3.33;2.53;;;;;;;21.97;54.72;96800.75;4999271;28;20214;-28
2023/11/09 11:13:34;;;;;;;7.80;3.97;;;;;;;21.97;54.49;96799.88;4986589;28;20230;-27
2023/11/09 11:16:05;;;;;;;4.20;3.43;;;;;;;21.97;54.63;96794.78;4990664;28;20612;-28
2023/11/09 11:18:56;;;;;;;7.20;3.50;;;;;;;21.97;54.61;96792.22;5003405;28;20221;-30
2023/11/09 11:21:52;;;;;;;4.20;3.50;;;;;;;21.97;54.80;96794.78;4975193;28;20298;-29
2023/11/09 11:24:53;;;;;;;4.53;3.27;;;;;;;21.97;54.81;96779.41;4990507;28;20321;-31
2023/11/09 11:27:34;;;;;;;6.07;3.43;;;;;;;21.89;54.63;96771.63;5002410;28;20260;-33
2023/11/09 11:30:13;;;;;;;5.47;3.17;;;;;;;21.95;54.84;96775.97;4992197;28;20689;-32
2023/11/09 11:32:40;;;;;;;4.20;3.40;;;;;;;21.95;55.08;96779.41;5008713;28;20212;-29
2023/11/09 11:35:07;;;;;;;4.77;3.20;;;;;;;21.95;55.08;96771.72;5008707;28;20207;-26
2023/11/09 11:37:33;;;;;;;5.07;3.27;;;;;;;21.95;55.03;96765.72;5011598;28;20217;-28
2023/11/09 11:40:05;;;;;;;6.33;3.03;;;;;;;21.94;55.11;96761.47;5009618;28;20260;-26
2023/11/09 11:42:34;;;;;;;4.23;3.00;;;;;;;21.95;55.16;96758.94;5010522;28;20202;-26
2023/11/09 11:45:01;;;;;;;5.90;3.10;;;;;;;21.95;55.01;96766.59;5010000;28;20221;-30
2023/11/09 11:47:29;;;;;;;3.40;2.90;;;;;;;21.96;55.17;96763.19;5011311;28;20202;-27